Pagrindinis puslapis
METAR-TAF:

METAR-TAF

Oro uostai :

Yüksekova, Turkija

platuma: 37-33-06N, ilguma: 44-14-01E, Aukštis: 1950 m

Dabartinis oras

Ataskaita buvo paskelbta 36 minutes, ne 09:50 UTC
Vėjas 5 kt iš Pietvakarių
Temperatūra 0°C
Drėgmė 69%
Slėgis 1017 hPa
Matomumas 10 km arba daugiau
nėra debesų žemiau 1500 m ir nėra kamuolinių lietaus debesų

METAR: LTCW 260950Z 23005KT CAVOK M00/M05 Q1017

Laikas: 13:26 (10:26 UTC)

Prognozė

Ataskaita buvo paskelbta 2 valandos ir 46 minutes, ne 07:40 UTC
Prognozė galioja nuo 26 metu 09 UTC su 26 metu 18 UTC
Vėjas 9 kt iš Vakarų
Matomumas 10 km arba daugiau
Mažai debesys ne aukštis 4000 ft

TAF: LTCW 260740Z 2609/2618 27009KT 9999 FEW040

Orai ataskaitas ir orų prognozės (METAR, TAF).

turimą stotys yra geltonos ir raudonos taškus žemėlapyje.

Perkelti pele per norėdami pamatyti stoties vardą.

Tada spustelėkite, norėdami matyti oro stebėjimo ir prognozės.

Norėdami pakeisti žemėlapį: spustelėkite ant žalios mygtukų su juodo kryžiaus žemyn,; žalią mygtuką su brūkšneliu, jei norite nutolinti; arba žalių rodyklių gretimoms žemėlapius.


METAR-TAF: